Palo, Iowa
Current Conditions -  °F | °C
As of 6:52 PM on Tuesday 21 Oct 2014 (Local Time) from KCID Reporting Station
Clear Clear  
Wind Chill: 50°   Ceiling: Unl
Heat Index: 50°   Visibility: 10mi
Dew Point: 38°   Wind: 7mph
Humidity: 63%   Direction: 100°E
Pressure: 30.17"   Gusts: NA
Location:  42.07°N, 91.8°W
Report Text: KCID 212352Z 10006KT 10SM CLR 10/03 A3017 RMK AO2 SLP223 T01000033 10156 20100 53007
Loading
Personal Weather Stations






























Interactive Weather Map
Tropical Storm Tracking
New forecast layout! Learn more

10-Day Weather Forecast

Advertisements
Track Severe Weather on mobile